createdAt,value
2018-11-04T00:00:04.620Z,60.125732
2018-11-04T00:00:24.112Z,60.15625
2018-11-04T00:00:43.643Z,60.26001
2018-11-04T00:01:03.163Z,60.461426
2018-11-04T00:01:22.892Z,60.36377
2018-11-04T00:01:42.417Z,60.15625
2018-11-04T00:02:01.906Z,59.954834
2018-11-04T00:02:22.517Z,60.05249
2018-11-04T00:02:42.020Z,59.954834
2018-11-04T00:03:01.550Z,59.851074
2018-11-04T00:03:21.064Z,59.747314
2018-11-04T00:03:40.684Z,59.643555
2018-11-04T00:04:00.341Z,59.338379
2018-11-04T00:04:19.985Z,59.466553
2018-11-04T00:04:39.565Z,59.875488
2018-11-04T00:04:59.062Z,59.906006
2018-11-04T00:05:18.601Z,60.137939
2018-11-04T00:05:39.181Z,60.650635
2018-11-04T00:05:58.739Z,60.754395
2018-11-04T00:06:18.240Z,60.650635
2018-11-04T00:06:37.925Z,60.443115
2018-11-04T00:06:57.767Z,60.681152
2018-11-04T00:07:17.287Z,60.986328
2018-11-04T00:07:36.910Z,61.010742
2018-11-04T00:07:57.724Z,61.322021
2018-11-04T00:08:17.383Z,61.425781
2018-11-04T00:08:36.917Z,61.499023
2018-11-04T00:08:56.539Z,61.700439
2018-11-04T00:09:16.493Z,61.364746
2018-11-04T00:09:36.023Z,60.955811
2018-11-04T00:09:55.606Z,61.05957
2018-11-04T00:10:15.150Z,60.723877
2018-11-04T00:10:34.729Z,59.70459
2018-11-04T00:10:54.290Z,59.906006
2018-11-04T00:11:13.919Z,59.70459
2018-11-04T00:11:33.447Z,59.393311
2018-11-04T00:11:52.940Z,59.057617
2018-11-04T00:12:12.913Z,58.856201
2018-11-04T00:12:32.457Z,58.856201
2018-11-04T00:12:51.986Z,59.265137
2018-11-04T00:13:11.626Z,59.777832
2018-11-04T00:13:31.030Z,59.570312
2018-11-04T00:13:50.545Z,58.959961
2018-11-04T00:14:10.191Z,58.343506
2018-11-04T00:14:29.704Z,58.24585
2018-11-04T00:14:49.270Z,58.03833
2018-11-04T00:15:08.768Z,57.836914
2018-11-04T00:15:29.197Z,57.93457
2018-11-04T00:15:50.614Z,57.733154
2018-11-04T00:16:10.258Z,57.525635
2018-11-04T00:16:29.757Z,57.427979
2018-11-04T00:16:49.281Z,57.629395
2018-11-04T00:17:08.834Z,57.629395
2018-11-04T00:17:28.433Z,57.836914
2018-11-04T00:17:48.180Z,57.427979
2018-11-04T00:18:07.672Z,57.116699
2018-11-04T00:18:27.247Z,57.348633
2018-11-04T00:18:46.748Z,57.525635
2018-11-04T00:19:06.341Z,57.629395
2018-11-04T00:19:25.848Z,57.525635
2018-11-04T00:19:45.383Z,57.220459
2018-11-04T00:20:04.908Z,57.043457
2018-11-04T00:20:24.517Z,57.348633
2018-11-04T00:20:44.082Z,57.659912
2018-11-04T00:21:03.604Z,57.659912
2018-11-04T00:21:23.232Z,57.757568
2018-11-04T00:21:42.786Z,57.757568
2018-11-04T00:22:02.311Z,57.659912
2018-11-04T00:22:21.848Z,57.452393
2018-11-04T00:22:41.447Z,57.348633
2018-11-04T00:23:01.006Z,56.939697
2018-11-04T00:23:21.619Z,56.866455
2018-11-04T00:23:41.158Z,57.403564
2018-11-04T00:24:00.809Z,58.453369
2018-11-04T00:24:20.306Z,58.862305
2018-11-04T00:24:39.834Z,59.069824
2018-11-04T00:25:00.351Z,59.375
2018-11-04T00:25:19.889Z,59.375
2018-11-04T00:25:39.442Z,59.173584
2018-11-04T00:25:59.265Z,59.27124
2018-11-04T00:26:18.762Z,59.58252
2018-11-04T00:26:38.366Z,59.246826
2018-11-04T00:26:57.944Z,58.325195
2018-11-04T00:27:17.538Z,58.428955
2018-11-04T00:27:36.971Z,58.325195
2018-11-04T00:27:56.518Z,58.428955
2018-11-04T00:28:16.041Z,58.807373
2018-11-04T00:28:35.628Z,58.911133
2018-11-04T00:28:55.168Z,58.807373
2018-11-04T00:29:14.675Z,58.197021
2018-11-04T00:29:34.494Z,57.861328
2018-11-04T00:29:54.076Z,57.348633
2018-11-04T00:30:13.507Z,57.043457
2018-11-04T00:30:33.035Z,56.939697
2018-11-04T00:30:52.773Z,57.275391
2018-11-04T00:31:12.709Z,57.885742
2018-11-04T00:31:32.273Z,58.197021
2018-11-04T00:31:51.840Z,57.989502
2018-11-04T00:32:11.537Z,57.684326
2018-11-04T00:32:31.129Z,57.507324
2018-11-04T00:32:50.651Z,57.8125
2018-11-04T00:33:10.376Z,58.221436
2018-11-04T00:33:29.913Z,58.221436
2018-11-04T00:33:49.459Z,58.02002
2018-11-04T00:34:09.295Z,58.02002
2018-11-04T00:34:28.852Z,58.02002
2018-11-04T00:34:48.500Z,57.580566
2018-11-04T00:35:08.021Z,57.171631
2018-11-04T00:35:27.540Z,57.171631
2018-11-04T00:35:47.063Z,56.970215
2018-11-04T00:36:06.569Z,57.067871
2018-11-04T00:36:26.178Z,56.939697
2018-11-04T00:36:45.712Z,56.842041
2018-11-04T00:37:05.243Z,56.329346
2018-11-04T00:37:24.788Z,56.02417
2018-11-04T00:37:45.172Z,56.02417
2018-11-04T00:38:05.604Z,56.225586
2018-11-04T00:38:25.114Z,56.225586
2018-11-04T00:38:44.641Z,55.712891
2018-11-04T00:39:04.172Z,55.511475
2018-11-04T00:39:23.764Z,55.712891
2018-11-04T00:39:43.348Z,55.712891
2018-11-04T00:40:02.878Z,55.81665
2018-11-04T00:40:22.461Z,55.92041
2018-11-04T00:40:42.022Z,55.92041
2018-11-04T00:41:01.766Z,55.92041
2018-11-04T00:41:21.254Z,56.048584
2018-11-04T00:41:40.775Z,55.841064
2018-11-04T00:42:00.295Z,56.25
2018-11-04T00:42:19.924Z,56.35376
2018-11-04T00:42:39.512Z,56.35376
2018-11-04T00:42:59.104Z,56.35376
2018-11-04T00:43:18.700Z,56.152344
2018-11-04T00:43:38.213Z,56.585693
2018-11-04T00:43:57.861Z,56.585693
2018-11-04T00:44:18.369Z,56.689453
2018-11-04T00:44:37.971Z,56.585693
2018-11-04T00:44:57.515Z,56.787109
2018-11-04T00:45:17.260Z,57.067871
2018-11-04T00:45:36.866Z,56.762695
2018-11-04T00:45:56.370Z,56.866455
2018-11-04T00:46:16.057Z,56.787109
2018-11-04T00:46:35.578Z,56.304932
2018-11-04T00:46:55.097Z,56.738281
2018-11-04T00:47:14.791Z,57.69043
2018-11-04T00:47:34.814Z,58.099365
2018-11-04T00:47:54.806Z,58.404541
2018-11-04T00:48:15.022Z,58.538818
2018-11-04T00:48:34.624Z,59.228516
2018-11-04T00:48:54.691Z,59.228516
2018-11-04T00:49:14.535Z,58.996582
2018-11-04T00:49:34.252Z,58.276367
2018-11-04T00:49:54.079Z,57.659912
2018-11-04T00:50:13.601Z,57.458496
2018-11-04T00:50:33.451Z,57.763672
2018-11-04T00:50:53.043Z,58.068848
2018-11-04T00:51:12.543Z,57.531738
2018-11-04T00:51:32.080Z,57.836914
2018-11-04T00:51:51.637Z,57.427979
2018-11-04T00:52:11.155Z,56.842041
2018-11-04T00:52:30.712Z,56.842041
2018-11-04T00:52:50.238Z,57.147217
2018-11-04T00:53:09.896Z,57.48291
2018-11-04T00:53:29.429Z,57.818604
2018-11-04T00:53:49.035Z,58.123779
2018-11-04T00:54:08.543Z,58.355713
2018-11-04T00:54:28.655Z,58.770752
2018-11-04T00:54:48.412Z,59.075928
2018-11-04T00:55:08.007Z,58.770752
2018-11-04T00:55:27.575Z,58.666992
2018-11-04T00:55:47.074Z,58.770752
2018-11-04T00:56:06.589Z,59.051514
2018-11-04T00:56:26.106Z,59.14917
2018-11-04T00:56:45.640Z,58.154297
2018-11-04T00:57:05.191Z,58.154297
2018-11-04T00:57:24.712Z,58.258057
2018-11-04T00:57:44.287Z,58.331299
2018-11-04T00:58:04.636Z,58.435059
2018-11-04T00:58:25.563Z,58.435059
2018-11-04T00:58:45.125Z,58.099365
2018-11-04T00:59:04.668Z,58.099365
2018-11-04T00:59:24.194Z,58.300781
2018-11-04T00:59:44.694Z,57.48291
2018-11-04T01:00:04.392Z,57.37915
2018-11-04T01:00:23.983Z,57.073975
2018-11-04T01:00:43.492Z,57.659912
2018-11-04T01:01:03.003Z,57.867432
2018-11-04T01:01:22.606Z,56.945801
2018-11-04T01:01:42.071Z,56.201172
2018-11-04T01:02:01.613Z,55.792236
2018-11-04T01:02:21.110Z,55.688477
2018-11-04T01:02:40.618Z,55.175781
2018-11-04T01:03:00.126Z,55.279541
2018-11-04T01:03:19.632Z,55.383301
2018-11-04T01:03:39.164Z,55.584717
2018-11-04T01:03:58.670Z,55.688477
2018-11-04T01:04:18.178Z,55.792236
2018-11-04T01:04:37.715Z,55.895996
2018-11-04T01:04:57.285Z,56.097412
2018-11-04T01:05:16.834Z,55.81665
2018-11-04T01:05:36.355Z,55.92041
2018-11-04T01:05:55.907Z,56.768799
2018-11-04T01:06:15.420Z,56.768799
2018-11-04T01:06:34.955Z,57.434082
2018-11-04T01:06:55.472Z,57.946777
2018-11-04T01:07:14.964Z,58.355713
2018-11-04T01:07:34.488Z,58.563232
2018-11-04T01:07:54.024Z,58.331299
2018-11-04T01:08:13.550Z,58.123779
2018-11-04T01:08:33.035Z,57.891846
2018-11-04T01:08:52.857Z,57.995605
2018-11-04T01:09:12.377Z,57.891846
2018-11-04T01:09:31.835Z,57.69043
2018-11-04T01:09:51.366Z,57.58667
2018-11-04T01:10:10.989Z,57.794189
2018-11-04T01:10:30.562Z,57.891846
2018-11-04T01:10:50.066Z,57.867432
2018-11-04T01:11:09.601Z,58.581543
2018-11-04T01:11:29.121Z,58.276367
2018-11-04T01:11:48.668Z,57.971191
2018-11-04T01:12:08.149Z,57.739258
2018-11-04T01:12:28.652Z,57.531738
2018-11-04T01:12:48.184Z,57.330322
2018-11-04T01:13:07.728Z,57.226562
2018-11-04T01:13:27.253Z,57.122803
2018-11-04T01:13:46.781Z,56.506348
2018-11-04T01:14:06.319Z,56.842041
2018-11-04T01:14:25.820Z,56.738281
2018-11-04T01:14:45.385Z,56.561279
2018-11-04T01:15:05.141Z,56.689453
2018-11-04T01:15:24.655Z,57.025146
2018-11-04T01:15:45.187Z,57.745361
2018-11-04T01:16:04.708Z,58.178711
2018-11-04T01:16:24.210Z,58.825684
2018-11-04T01:16:43.734Z,59.130859
2018-11-04T01:17:03.250Z,59.0271
2018-11-04T01:17:22.767Z,59.338379
2018-11-04T01:17:42.279Z,59.466553
2018-11-04T01:18:01.865Z,59.570312
2018-11-04T01:18:21.436Z,59.466553
2018-11-04T01:18:41.912Z,59.436035
2018-11-04T01:19:01.410Z,59.259033
2018-11-04T01:19:20.895Z,59.362793
2018-11-04T01:19:40.436Z,59.466553
2018-11-04T01:19:59.962Z,59.259033
2018-11-04T01:20:19.637Z,59.161377
2018-11-04T01:20:39.217Z,58.92334
2018-11-04T01:20:58.750Z,58.544922
2018-11-04T01:21:19.268Z,58.850098
2018-11-04T01:21:38.798Z,58.642578
2018-11-04T01:21:58.324Z,58.673096
2018-11-04T01:22:17.864Z,59.082031
2018-11-04T01:22:37.421Z,59.393311
2018-11-04T01:22:56.934Z,59.594727
2018-11-04T01:23:16.445Z,59.698486
2018-11-04T01:23:35.955Z,59.466553
2018-11-04T01:23:55.483Z,59.259033
2018-11-04T01:24:14.999Z,58.721924
2018-11-04T01:24:34.496Z,58.178711
2018-11-04T01:24:54.035Z,57.769775
2018-11-04T01:25:13.619Z,57.843018
2018-11-04T01:25:33.131Z,57.434082
2018-11-04T01:25:53.641Z,57.098389
2018-11-04T01:26:13.227Z,56.585693
2018-11-04T01:26:32.684Z,55.944824
2018-11-04T01:26:52.206Z,56.048584
2018-11-04T01:27:11.726Z,55.743408
2018-11-04T01:27:31.266Z,55.432129
2018-11-04T01:27:50.791Z,55.334473
2018-11-04T01:28:10.341Z,55.334473
2018-11-04T01:28:29.860Z,55.334473
2018-11-04T01:28:49.392Z,55.743408
2018-11-04T01:29:08.965Z,55.847168
2018-11-04T01:29:28.450Z,55.847168
2018-11-04T01:29:47.967Z,55.847168
2018-11-04T01:30:07.531Z,55.944824
2018-11-04T01:30:27.133Z,56.280518
2018-11-04T01:30:46.588Z,56.689453
2018-11-04T01:31:06.104Z,57.098389
2018-11-04T01:31:25.632Z,57.611084
2018-11-04T01:31:46.138Z,57.611084
2018-11-04T01:32:05.659Z,57.098389
2018-11-04T01:32:26.177Z,56.896973
2018-11-04T01:32:45.704Z,56.896973
2018-11-04T01:33:05.226Z,56.866455
2018-11-04T01:33:24.730Z,56.866455
2018-11-04T01:33:44.252Z,57.177734
2018-11-04T01:34:03.777Z,56.866455
2018-11-04T01:34:23.322Z,56.665039
2018-11-04T01:34:42.816Z,56.689453
2018-11-04T01:35:03.314Z,56.768799
2018-11-04T01:35:22.911Z,56.793213
2018-11-04T01:35:42.423Z,56.689453
2018-11-04T01:36:01.944Z,56.793213
2018-11-04T01:36:21.492Z,57.232666
2018-11-04T01:36:40.972Z,57.769775
2018-11-04T01:37:00.503Z,57.977295
2018-11-04T01:37:20.010Z,58.001709
2018-11-04T01:37:39.516Z,58.514404
2018-11-04T01:37:59.035Z,58.92334
2018-11-04T01:38:18.564Z,59.204102
2018-11-04T01:38:38.074Z,59.204102
2018-11-04T01:38:58.622Z,58.721924
2018-11-04T01:39:19.170Z,58.825684
2018-11-04T01:39:38.680Z,58.92334
2018-11-04T01:39:58.197Z,58.92334
2018-11-04T01:40:17.742Z,58.92334
2018-11-04T01:40:37.298Z,59.259033
2018-11-04T01:40:56.797Z,59.259033
2018-11-04T01:41:16.348Z,59.594727
2018-11-04T01:41:35.895Z,59.906006
2018-11-04T01:41:55.453Z,59.906006
2018-11-04T01:42:15.940Z,60.211182
2018-11-04T01:42:35.451Z,60.314941
2018-11-04T01:42:54.982Z,60.418701
2018-11-04T01:43:14.510Z,60.449219
2018-11-04T01:43:34.028Z,60.241699
2018-11-04T01:43:53.555Z,60.345459
2018-11-04T01:44:13.082Z,60.449219
2018-11-04T01:44:32.605Z,60.241699
2018-11-04T01:44:52.127Z,60.241699
2018-11-04T01:45:12.647Z,60.03418
2018-11-04T01:45:32.208Z,59.240723
2018-11-04T01:45:51.726Z,59.552002
2018-11-04T01:46:11.242Z,59.857178
2018-11-04T01:46:30.818Z,59.753418
2018-11-04T01:46:50.360Z,59.857178
2018-11-04T01:47:09.866Z,60.064697
2018-11-04T01:47:29.405Z,59.960938
2018-11-04T01:47:48.922Z,59.857178
2018-11-04T01:48:09.439Z,59.960938
2018-11-04T01:48:28.981Z,59.960938
2018-11-04T01:48:48.515Z,59.857178
2018-11-04T01:49:08.033Z,59.857178
2018-11-04T01:49:28.551Z,59.729004
2018-11-04T01:49:48.055Z,59.625244
2018-11-04T01:50:07.572Z,59.625244
2018-11-04T01:50:27.098Z,59.753418
2018-11-04T01:50:47.647Z,59.521484
2018-11-04T01:51:07.211Z,59.521484
2018-11-04T01:51:26.739Z,59.417725
2018-11-04T01:51:46.311Z,59.649658
2018-11-04T01:52:05.799Z,59.857178
2018-11-04T01:52:25.331Z,60.064697
2018-11-04T01:52:44.868Z,60.168457
2018-11-04T01:53:04.398Z,60.369873
2018-11-04T01:53:23.909Z,60.369873
2018-11-04T01:53:43.401Z,60.137939
2018-11-04T01:54:02.914Z,59.832764
2018-11-04T01:54:23.250Z,59.625244
2018-11-04T01:54:42.750Z,59.857178
2018-11-04T01:55:02.260Z,59.753418
2018-11-04T01:55:21.750Z,59.753418
2018-11-04T01:55:41.328Z,59.857178
2018-11-04T01:56:00.842Z,59.960938
2018-11-04T01:56:20.399Z,59.832764
2018-11-04T01:56:39.936Z,59.521484
2018-11-04T01:56:59.467Z,59.625244
2018-11-04T01:57:19.004Z,59.552002
2018-11-04T01:57:38.518Z,59.448242
2018-11-04T01:57:58.029Z,59.552002
2018-11-04T01:58:18.559Z,59.552002
2018-11-04T01:58:39.059Z,59.552002
2018-11-04T01:58:58.581Z,59.783936
2018-11-04T01:59:18.098Z,60.089111
2018-11-04T01:59:37.604Z,59.887695
2018-11-04T01:59:57.150Z,59.991455
2018-11-04T02:00:16.682Z,60.192871
2018-11-04T02:00:36.270Z,60.064697
2018-11-04T02:00:55.785Z,60.064697
2018-11-04T02:01:15.301Z,60.272217
2018-11-04T02:01:34.793Z,60.272217
2018-11-04T02:01:54.301Z,60.168457
2018-11-04T02:02:14.803Z,60.03418
2018-11-04T02:02:34.340Z,59.93042
2018-11-04T02:02:53.865Z,60.009766
2018-11-04T02:03:13.373Z,60.009766
2018-11-04T02:03:32.861Z,59.49707
2018-11-04T02:03:52.365Z,59.082031
2018-11-04T02:04:11.866Z,58.874512
2018-11-04T02:04:31.391Z,58.978271
2018-11-04T02:04:50.917Z,58.978271
2018-11-04T02:05:10.443Z,58.978271
2018-11-04T02:05:29.958Z,59.008789
2018-11-04T02:05:50.524Z,59.112549
2018-11-04T02:06:10.057Z,59.216309
2018-11-04T02:06:29.579Z,59.112549
2018-11-04T02:06:49.113Z,59.216309
2018-11-04T02:07:08.612Z,59.216309
2018-11-04T02:07:28.116Z,59.216309
2018-11-04T02:07:47.644Z,59.417725
2018-11-04T02:08:08.153Z,59.521484
2018-11-04T02:08:27.674Z,59.521484
2018-11-04T02:08:47.182Z,59.594727
2018-11-04T02:09:06.733Z,59.698486
2018-11-04T02:09:26.259Z,59.393311
2018-11-04T02:09:45.763Z,59.289551
2018-11-04T02:10:05.287Z,59.185791
2018-11-04T02:10:24.780Z,59.185791
2018-11-04T02:10:44.291Z,59.289551
2018-11-04T02:11:03.862Z,59.625244
2018-11-04T02:11:23.365Z,60.137939
2018-11-04T02:11:42.889Z,60.546875
2018-11-04T02:12:02.409Z,60.784912
2018-11-04T02:12:21.917Z,60.754395
2018-11-04T02:12:41.446Z,60.858154
2018-11-04T02:13:00.961Z,60.986328
2018-11-04T02:13:20.486Z,61.090088
2018-11-04T02:13:40.010Z,61.401367
2018-11-04T02:13:59.517Z,61.608887
2018-11-04T02:14:19.015Z,61.706543
2018-11-04T02:14:38.553Z,61.706543
2018-11-04T02:14:58.070Z,61.706543
2018-11-04T02:15:17.578Z,61.633301
2018-11-04T02:15:37.092Z,61.633301
2018-11-04T02:15:56.674Z,61.328125
2018-11-04T02:16:16.204Z,61.120605
2018-11-04T02:16:35.711Z,61.456299
2018-11-04T02:16:55.250Z,61.456299
2018-11-04T02:17:14.760Z,61.560059
2018-11-04T02:17:34.261Z,61.456299
2018-11-04T02:17:53.790Z,61.328125
2018-11-04T02:18:13.269Z,61.328125
2018-11-04T02:18:32.773Z,61.224365
2018-11-04T02:18:52.275Z,61.193848
2018-11-04T02:19:11.797Z,60.681152
2018-11-04T02:19:31.336Z,60.272217
2018-11-04T02:19:50.829Z,60.03418
2018-11-04T02:20:11.347Z,59.832764
2018-11-04T02:20:30.856Z,59.625244
2018-11-04T02:20:50.378Z,59.649658
2018-11-04T02:21:09.973Z,59.960938
2018-11-04T02:21:29.471Z,60.168457
2018-11-04T02:21:48.998Z,59.960938
2018-11-04T02:22:08.521Z,60.272217
2018-11-04T02:22:28.017Z,60.064697
2018-11-04T02:22:47.520Z,59.93042
2018-11-04T02:23:07.039Z,60.137939
2018-11-04T02:23:26.580Z,60.009766
2018-11-04T02:23:46.077Z,59.594727
2018-11-04T02:24:05.594Z,58.673096
2018-11-04T02:24:25.120Z,58.544922
2018-11-04T02:24:44.646Z,58.642578
2018-11-04T02:25:04.166Z,58.850098
2018-11-04T02:25:23.684Z,58.441162
2018-11-04T02:25:43.185Z,58.233643
2018-11-04T02:26:02.779Z,58.410645
2018-11-04T02:26:22.265Z,58.410645
2018-11-04T02:26:41.764Z,58.001709
2018-11-04T02:27:01.288Z,58.001709
2018-11-04T02:27:20.817Z,58.209229
2018-11-04T02:27:40.312Z,58.001709
2018-11-04T02:27:59.842Z,57.489014
2018-11-04T02:28:19.360Z,57.25708
2018-11-04T02:28:38.889Z,57.049561
2018-11-04T02:28:58.438Z,56.945801
2018-11-04T02:29:17.951Z,57.15332
2018-11-04T02:29:37.485Z,57.25708
2018-11-04T02:29:56.987Z,57.049561
2018-11-04T02:30:16.528Z,56.848145
2018-11-04T02:30:36.101Z,56.201172
2018-11-04T02:30:55.636Z,55.999756
2018-11-04T02:31:15.194Z,55.511475
2018-11-04T02:31:34.694Z,55.847168
2018-11-04T02:31:55.207Z,56.256104
2018-11-04T02:32:14.719Z,56.463623
2018-11-04T02:32:34.225Z,56.359863
2018-11-04T02:32:53.719Z,56.640625
2018-11-04T02:33:13.243Z,56.12793
2018-11-04T02:33:32.729Z,55.615234
2018-11-04T02:33:52.242Z,55.303955
2018-11-04T02:34:11.733Z,54.89502
2018-11-04T02:34:31.245Z,54.89502
2018-11-04T02:34:50.772Z,55.102539
2018-11-04T02:35:10.301Z,55.92041
2018-11-04T02:35:29.806Z,55.822754
2018-11-04T02:35:49.325Z,55.432129
2018-11-04T02:36:08.909Z,55.664062
2018-11-04T02:36:28.420Z,56.176758
2018-11-04T02:36:47.956Z,56.695557
2018-11-04T02:37:07.475Z,57.312012
2018-11-04T02:37:27.001Z,56.768799
2018-11-04T02:37:46.517Z,56.359863
2018-11-04T02:38:06.038Z,56.256104
2018-11-04T02:38:25.570Z,55.950928
2018-11-04T02:38:45.075Z,55.950928
2018-11-04T02:39:04.591Z,55.718994
2018-11-04T02:39:24.114Z,56.02417
2018-11-04T02:39:43.666Z,56.12793
2018-11-04T02:40:03.194Z,55.822754
2018-11-04T02:40:22.682Z,55.407715
2018-11-04T02:40:43.168Z,55.206299
2018-11-04T02:41:02.713Z,55.487061
2018-11-04T02:41:22.263Z,54.998779
2018-11-04T02:41:41.754Z,55.126953
2018-11-04T02:42:01.314Z,55.639648
2018-11-04T02:42:20.829Z,55.950928
2018-11-04T02:42:40.372Z,55.126953
2018-11-04T02:42:59.911Z,55.023193
2018-11-04T02:43:19.426Z,55.047607
2018-11-04T02:43:38.962Z,55.59082
2018-11-04T02:43:58.545Z,56.335449
2018-11-04T02:44:18.067Z,56.951904
2018-11-04T02:44:37.600Z,57.36084
2018-11-04T02:44:57.100Z,57.696533
2018-11-04T02:45:17.607Z,57.904053
2018-11-04T02:45:37.109Z,58.209229
2018-11-04T02:45:56.629Z,58.312988
2018-11-04T02:46:16.202Z,58.209229
2018-11-04T02:46:35.730Z,58.343506
2018-11-04T02:46:55.388Z,58.624268
2018-11-04T02:47:14.763Z,58.728027
2018-11-04T02:47:34.258Z,58.831787
2018-11-04T02:47:53.770Z,58.831787
2018-11-04T02:48:13.303Z,58.929443
2018-11-04T02:48:32.812Z,58.905029
2018-11-04T02:48:52.319Z,58.905029
2018-11-04T02:49:11.829Z,58.80127
2018-11-04T02:49:31.364Z,58.776855
2018-11-04T02:49:50.861Z,58.569336
2018-11-04T02:50:10.391Z,58.673096
2018-11-04T02:50:29.922Z,58.465576
2018-11-04T02:50:49.449Z,58.465576
2018-11-04T02:51:08.957Z,58.673096
2018-11-04T02:51:28.558Z,58.746338
2018-11-04T02:51:48.067Z,58.850098
2018-11-04T02:52:07.575Z,59.057617
2018-11-04T02:52:28.079Z,59.259033
2018-11-04T02:52:48.587Z,59.161377
2018-11-04T02:53:08.091Z,59.259033
2018-11-04T02:53:27.590Z,59.130859
2018-11-04T02:53:47.125Z,58.721924
2018-11-04T02:54:06.660Z,58.618164
2018-11-04T02:54:26.172Z,58.48999
2018-11-04T02:54:45.717Z,58.587646
2018-11-04T02:55:05.256Z,58.691406
2018-11-04T02:55:24.779Z,58.48999
2018-11-04T02:55:44.289Z,58.38623
2018-11-04T02:56:03.835Z,58.38623
2018-11-04T02:56:23.422Z,58.587646
2018-11-04T02:56:42.933Z,59.002686
2018-11-04T02:57:02.487Z,59.002686
2018-11-04T02:57:21.980Z,58.459473
2018-11-04T02:57:41.509Z,58.258057
2018-11-04T02:58:01.003Z,58.154297
2018-11-04T02:58:20.501Z,57.843018
2018-11-04T02:58:40.052Z,57.745361
2018-11-04T02:58:59.548Z,57.843018
2018-11-04T02:59:20.040Z,57.946777
2018-11-04T02:59:39.548Z,58.050537
2018-11-04T02:59:59.076Z,58.563232
2018-11-04T03:00:18.584Z,58.563232
2018-11-04T03:00:38.091Z,58.154297
2018-11-04T03:00:57.631Z,57.946777
2018-11-04T03:01:17.192Z,57.745361
2018-11-04T03:01:36.772Z,57.537842
2018-11-04T03:01:56.370Z,57.409668
2018-11-04T03:02:15.809Z,57.409668
2018-11-04T03:02:35.324Z,57.202148
2018-11-04T03:02:54.869Z,57.098389
2018-11-04T03:03:15.394Z,56.896973
2018-11-04T03:03:34.922Z,56.896973
2018-11-04T03:03:54.461Z,56.896973
2018-11-04T03:04:13.989Z,57.000732
2018-11-04T03:04:33.498Z,57.000732
2018-11-04T03:04:54.003Z,57.098389
2018-11-04T03:05:13.544Z,57.098389
2018-11-04T03:05:33.068Z,57.202148
2018-11-04T03:05:52.575Z,56.896973
2018-11-04T03:06:13.055Z,56.896973
2018-11-04T03:06:32.640Z,56.896973
2018-11-04T03:06:52.209Z,56.793213
2018-11-04T03:07:11.731Z,56.896973
2018-11-04T03:07:31.256Z,57.000732
2018-11-04T03:07:51.775Z,56.896973
2018-11-04T03:08:11.273Z,56.896973
2018-11-04T03:08:30.785Z,57.000732
2018-11-04T03:08:50.296Z,57.000732
2018-11-04T03:09:09.842Z,57.000732
2018-11-04T03:09:30.366Z,57.098389
2018-11-04T03:09:49.892Z,57.098389
2018-11-04T03:10:09.414Z,57.098389
2018-11-04T03:10:28.928Z,57.098389
2018-11-04T03:10:48.449Z,56.793213
2018-11-04T03:11:07.960Z,56.689453
2018-11-04T03:11:27.494Z,56.793213
2018-11-04T03:11:47.090Z,56.896973
2018-11-04T03:12:06.610Z,56.616211
2018-11-04T03:12:26.119Z,56.201172
2018-11-04T03:12:45.639Z,56.335449
2018-11-04T03:13:05.148Z,56.744385
2018-11-04T03:13:24.654Z,56.640625
2018-11-04T03:13:45.160Z,56.768799
2018-11-04T03:14:04.671Z,57.281494
2018-11-04T03:14:24.182Z,57.592773
2018-11-04T03:14:43.708Z,57.794189
2018-11-04T03:15:03.223Z,57.666016
2018-11-04T03:15:22.722Z,57.36084
2018-11-04T03:15:43.229Z,57.049561
2018-11-04T03:16:02.725Z,56.848145
2018-11-04T03:16:22.253Z,56.408691
2018-11-04T03:16:42.820Z,56.103516
2018-11-04T03:17:02.341Z,55.895996
2018-11-04T03:17:21.855Z,55.895996
2018-11-04T03:17:41.372Z,55.688477
2018-11-04T03:18:00.887Z,55.078125
2018-11-04T03:18:20.407Z,54.974365
2018-11-04T03:18:39.918Z,54.870605
2018-11-04T03:19:00.408Z,54.846191
2018-11-04T03:19:19.945Z,54.534912
2018-11-04T03:19:39.454Z,54.125977
2018-11-04T03:19:59.974Z,54.25415
2018-11-04T03:20:19.462Z,53.924561
2018-11-04T03:20:38.982Z,53.613281
2018-11-04T03:20:58.518Z,52.514648
2018-11-04T03:21:18.025Z,52.410889
2018-11-04T03:21:37.533Z,52.844238
2018-11-04T03:21:57.108Z,53.051758
2018-11-04T03:22:16.613Z,53.356934
2018-11-04T03:22:36.135Z,53.869629
2018-11-04T03:22:55.658Z,53.662109
2018-11-04T03:23:15.153Z,53.460693
2018-11-04T03:23:34.662Z,53.149414
2018-11-04T03:23:54.187Z,53.051758
2018-11-04T03:24:14.688Z,53.356934
2018-11-04T03:24:34.265Z,53.564453
2018-11-04T03:24:53.729Z,53.356934
2018-11-04T03:25:13.262Z,53.253174
2018-11-04T03:25:32.770Z,53.564453
2018-11-04T03:25:52.292Z,53.765869
2018-11-04T03:26:12.774Z,53.460693
2018-11-04T03:26:32.260Z,53.149414
2018-11-04T03:26:51.813Z,52.947998
2018-11-04T03:27:11.354Z,53.149414
2018-11-04T03:27:30.889Z,53.356934
2018-11-04T03:27:50.386Z,53.149414
2018-11-04T03:28:09.907Z,53.051758
2018-11-04T03:28:29.398Z,52.947998
2018-11-04T03:28:48.930Z,52.844238
2018-11-04T03:29:08.476Z,52.740479
2018-11-04T03:29:28.008Z,52.947998
2018-11-04T03:29:47.499Z,52.740479
2018-11-04T03:30:06.990Z,52.740479
2018-11-04T03:30:26.521Z,52.636719
2018-11-04T03:30:46.039Z,52.844238
2018-11-04T03:31:06.558Z,52.947998
2018-11-04T03:31:26.080Z,53.149414
2018-11-04T03:31:46.591Z,53.564453
2018-11-04T03:32:06.172Z,53.253174
2018-11-04T03:32:25.678Z,52.740479
2018-11-04T03:32:45.175Z,52.740479
2018-11-04T03:33:05.683Z,52.539062
2018-11-04T03:33:25.196Z,52.539062
2018-11-04T03:33:44.706Z,52.947998
2018-11-04T03:34:04.224Z,52.947998
2018-11-04T03:34:23.778Z,52.947998
2018-11-04T03:34:43.286Z,52.844238
2018-11-04T03:35:02.805Z,52.947998
2018-11-04T03:35:22.332Z,52.636719
2018-11-04T03:35:41.870Z,52.636719
2018-11-04T03:36:02.378Z,52.636719
2018-11-04T03:36:21.948Z,52.539062
2018-11-04T03:36:41.469Z,52.435303
2018-11-04T03:37:01.032Z,52.435303
2018-11-04T03:37:20.534Z,52.539062
2018-11-04T03:37:40.049Z,52.947998
2018-11-04T03:37:59.595Z,52.947998
2018-11-04T03:38:19.094Z,52.844238
2018-11-04T03:38:38.595Z,53.149414
2018-11-04T03:38:58.096Z,53.027344
2018-11-04T03:39:17.590Z,52.716064
2018-11-04T03:39:37.115Z,52.716064
2018-11-04T03:39:56.641Z,52.716064
2018-11-04T03:40:16.174Z,52.716064
2018-11-04T03:40:35.705Z,52.716064
2018-11-04T03:40:55.235Z,52.819824
2018-11-04T03:41:15.750Z,52.819824
2018-11-04T03:41:35.260Z,52.947998
2018-11-04T03:41:54.800Z,53.051758
2018-11-04T03:42:14.370Z,53.356934
2018-11-04T03:42:33.876Z,53.692627
2018-11-04T03:42:53.385Z,54.333496
2018-11-04T03:43:12.886Z,55.078125
2018-11-04T03:43:32.405Z,55.718994
2018-11-04T03:43:52.890Z,56.256104
2018-11-04T03:44:12.437Z,56.872559
2018-11-04T03:44:31.961Z,57.104492